createdAt,value
2018-10-03T00:00:10.255Z,52.3
2018-10-03T00:01:11.836Z,51.8
2018-10-03T00:02:13.244Z,51.8
2018-10-03T00:03:14.810Z,52.3
2018-10-03T00:04:16.372Z,51.3
2018-10-03T00:05:17.760Z,51.3
2018-10-03T00:06:19.143Z,51.3
2018-10-03T00:07:20.543Z,50.8
2018-10-03T00:08:21.996Z,51.3
2018-10-03T00:09:23.329Z,50.8
2018-10-03T00:10:24.926Z,49.9
2018-10-03T00:11:26.496Z,50.8
2018-10-03T00:12:27.904Z,50.3
2018-10-03T00:13:29.292Z,50.3
2018-10-03T00:14:30.680Z,49.9
2018-10-03T00:15:32.253Z,50.3
2018-10-03T00:16:33.805Z,49.4
2018-10-03T00:17:35.375Z,49.4
2018-10-03T00:18:36.945Z,49.4
2018-10-03T00:19:38.340Z,48.9
2018-10-03T00:20:39.915Z,49.4
2018-10-03T00:21:41.504Z,49.4
2018-10-03T00:22:43.062Z,49.4
2018-10-03T00:23:44.479Z,48.9
2018-10-03T00:24:46.030Z,48.9
2018-10-03T00:25:47.418Z,48.4
2018-10-03T00:26:48.987Z,48.9
2018-10-03T00:27:50.605Z,49.9
2018-10-03T00:28:52.167Z,49.4
2018-10-03T00:29:53.729Z,49.4
2018-10-03T00:30:55.288Z,49.4
2018-10-03T00:31:56.832Z,48.9
2018-10-03T00:32:58.392Z,48.9
2018-10-03T00:33:59.970Z,48.4
2018-10-03T00:35:01.208Z,48.4
2018-10-03T00:36:02.776Z,48.9
2018-10-03T00:37:04.176Z,48.9
2018-10-03T00:38:05.741Z,48.4
2018-10-03T00:39:07.150Z,48.9
2018-10-03T00:40:08.708Z,47.9
2018-10-03T00:41:10.107Z,47.9
2018-10-03T00:42:11.505Z,48.4
2018-10-03T00:43:13.091Z,46.9
2018-10-03T00:44:14.484Z,48.4
2018-10-03T00:45:16.036Z,47.4
2018-10-03T00:46:17.430Z,47.9
2018-10-03T00:47:18.823Z,47.4
2018-10-03T00:48:20.392Z,47.4
2018-10-03T00:49:21.955Z,47.4
2018-10-03T00:50:23.188Z,47.4
2018-10-03T00:51:24.584Z,46.9
2018-10-03T00:52:26.013Z,47.4
2018-10-03T00:53:27.393Z,47.9
2018-10-03T00:54:28.963Z,46.9
2018-10-03T00:55:30.207Z,46.9
2018-10-03T00:56:31.620Z,45.9
2018-10-03T00:57:33.194Z,46.4
2018-10-03T00:58:34.781Z,46.4
2018-10-03T00:59:36.355Z,45.9
2018-10-03T01:00:37.770Z,46.4
2018-10-03T01:01:39.168Z,45.9
2018-10-03T01:02:40.549Z,45.9
2018-10-03T01:03:41.938Z,45.9
2018-10-03T01:04:43.494Z,46.4
2018-10-03T01:05:44.912Z,45.9
2018-10-03T01:06:46.473Z,45.5
2018-10-03T01:07:48.154Z,45.5
2018-10-03T01:08:49.418Z,45
2018-10-03T01:09:50.974Z,45.5
2018-10-03T01:10:52.527Z,45.5
2018-10-03T01:11:54.138Z,45.9
2018-10-03T01:12:55.712Z,45.9
2018-10-03T01:13:57.261Z,45.5
2018-10-03T01:14:58.829Z,45.5
2018-10-03T01:16:00.236Z,44.5
2018-10-03T01:17:01.798Z,44.5
2018-10-03T01:18:03.195Z,45.5
2018-10-03T01:19:04.756Z,44.5
2018-10-03T01:20:06.161Z,43.5
2018-10-03T01:21:07.711Z,44
2018-10-03T01:22:09.317Z,43.5
2018-10-03T01:23:10.890Z,43.5
2018-10-03T01:24:12.449Z,43
2018-10-03T01:25:13.859Z,42.5
2018-10-03T01:26:15.439Z,42.5
2018-10-03T01:27:17.006Z,42
2018-10-03T01:28:18.575Z,43
2018-10-03T01:29:19.990Z,42.5
2018-10-03T01:30:21.556Z,42.5
2018-10-03T01:31:23.099Z,42.5
2018-10-03T01:32:24.648Z,41.1
2018-10-03T01:33:26.222Z,41.5
2018-10-03T01:34:27.765Z,41.1
2018-10-03T01:35:29.330Z,41.5
2018-10-03T01:36:30.888Z,41.5
2018-10-03T01:37:32.449Z,42
2018-10-03T01:38:34.138Z,42
2018-10-03T01:39:35.377Z,43.5
2018-10-03T01:40:36.960Z,43.5
2018-10-03T01:41:38.517Z,44
2018-10-03T01:42:40.085Z,44
2018-10-03T01:43:41.475Z,44.5
2018-10-03T01:44:42.713Z,45
2018-10-03T01:45:44.278Z,45
2018-10-03T01:46:45.851Z,45.9
2018-10-03T01:47:47.242Z,45.9
2018-10-03T01:48:48.643Z,46.9
2018-10-03T01:49:50.035Z,46.4
2018-10-03T01:50:51.584Z,46.9
2018-10-03T01:51:53.154Z,46.9
2018-10-03T01:52:54.574Z,47.9
2018-10-03T01:53:56.143Z,47.9
2018-10-03T01:54:57.763Z,48.4
2018-10-03T01:55:59.148Z,48.9
2018-10-03T01:57:00.718Z,48.4
2018-10-03T01:58:02.276Z,49.4
2018-10-03T01:59:03.840Z,49.4
2018-10-03T02:00:05.399Z,49.9
2018-10-03T02:01:06.953Z,49.9
2018-10-03T02:02:08.340Z,49.9
2018-10-03T02:03:09.894Z,49.9
2018-10-03T02:04:11.466Z,50.3
2018-10-03T02:05:12.865Z,49.4
2018-10-03T02:06:14.262Z,50.8
2018-10-03T02:07:15.648Z,49.9
2018-10-03T02:08:17.228Z,50.8
2018-10-03T02:09:18.305Z,50.8
2018-10-03T02:10:19.875Z,50.3
2018-10-03T02:11:21.449Z,49.9
2018-10-03T02:12:23.005Z,50.3
2018-10-03T02:13:24.551Z,51.3
2018-10-03T02:14:26.110Z,50.8
2018-10-03T02:15:27.700Z,50.3
2018-10-03T02:16:29.273Z,50.8
2018-10-03T02:17:30.534Z,50.8
2018-10-03T02:18:32.113Z,50.8
2018-10-03T02:19:33.544Z,49.9
2018-10-03T02:20:35.097Z,50.3
2018-10-03T02:21:36.668Z,50.3
2018-10-03T02:22:38.070Z,49.9
2018-10-03T02:23:39.625Z,50.8
2018-10-03T02:24:41.212Z,49.9
2018-10-03T02:25:42.769Z,49.4
2018-10-03T02:26:44.331Z,49.4
2018-10-03T02:27:45.889Z,48.9
2018-10-03T02:28:47.309Z,47.9
2018-10-03T02:29:48.869Z,48.4
2018-10-03T02:30:50.451Z,46.9
2018-10-03T02:31:52.025Z,45.9
2018-10-03T02:32:53.607Z,46.4
2018-10-03T02:33:55.170Z,45.9
2018-10-03T02:34:56.727Z,45.9
2018-10-03T02:35:58.148Z,45.9
2018-10-03T02:36:59.714Z,46.4
2018-10-03T02:38:01.278Z,46.4
2018-10-03T02:39:02.687Z,46.9
2018-10-03T02:40:04.257Z,46.9
2018-10-03T02:41:05.827Z,46.9
2018-10-03T02:42:07.385Z,46.9
2018-10-03T02:43:08.955Z,47.4
2018-10-03T02:44:10.358Z,46.4
2018-10-03T02:45:11.924Z,45.9
2018-10-03T02:46:13.323Z,45.9
2018-10-03T02:47:14.715Z,45.5
2018-10-03T02:48:16.287Z,45
2018-10-03T02:49:17.699Z,44.5
2018-10-03T02:50:19.284Z,44.5
2018-10-03T02:51:20.850Z,44
2018-10-03T02:52:22.432Z,44
2018-10-03T02:53:23.992Z,42.5
2018-10-03T02:54:25.568Z,43.5
2018-10-03T02:55:26.813Z,44
2018-10-03T02:56:28.196Z,45
2018-10-03T02:57:29.761Z,45.5
2018-10-03T02:58:31.306Z,46.4
2018-10-03T02:59:32.866Z,45.9
2018-10-03T03:00:34.306Z,45.9
2018-10-03T03:01:36.176Z,45
2018-10-03T03:02:37.867Z,44.5
2018-10-03T03:03:39.437Z,42.5
2018-10-03T03:04:41.014Z,41.5
2018-10-03T03:05:42.579Z,41.1
2018-10-03T03:06:44.144Z,39.6
2018-10-03T03:07:45.786Z,39.6
2018-10-03T03:08:47.635Z,40.1
2018-10-03T03:09:49.069Z,38.1
2018-10-03T03:10:50.642Z,39.1
2018-10-03T03:11:52.223Z,39.1
2018-10-03T03:12:53.775Z,39.1
2018-10-03T03:13:55.343Z,38.6
2018-10-03T03:14:56.750Z,38.6
2018-10-03T03:15:58.131Z,38.1
2018-10-03T03:16:59.687Z,38.1
2018-10-03T03:18:01.079Z,38.1
2018-10-03T03:19:02.659Z,38.6
2018-10-03T03:20:04.231Z,38.6
2018-10-03T03:21:05.808Z,38.1
2018-10-03T03:22:07.369Z,37.6
2018-10-03T03:23:08.970Z,38.1
2018-10-03T03:24:10.562Z,37.1
2018-10-03T03:25:11.963Z,41.1
2018-10-03T03:26:13.339Z,44.5
2018-10-03T03:27:14.897Z,47.9
2018-10-03T03:28:16.458Z,51.3
2018-10-03T03:29:18.033Z,53.3
2018-10-03T03:30:19.253Z,56.2
2018-10-03T03:31:20.484Z,57.2
2018-10-03T03:32:22.054Z,57.2
2018-10-03T03:33:23.620Z,57.2
2018-10-03T03:34:24.684Z,58.2
2018-10-03T03:35:26.279Z,58.2
2018-10-03T03:36:27.844Z,58.2
2018-10-03T03:37:29.428Z,59.1
2018-10-03T03:38:30.986Z,58.2
2018-10-03T03:39:32.362Z,58.7
2018-10-03T03:40:33.924Z,57.7
2018-10-03T03:41:35.321Z,58.2
2018-10-03T03:42:36.870Z,58.2
2018-10-03T03:43:38.436Z,56.7
2018-10-03T03:44:39.826Z,57.2
2018-10-03T03:45:41.392Z,56.2
2018-10-03T03:46:42.956Z,55.7
2018-10-03T03:47:44.550Z,54.7
2018-10-03T03:48:45.967Z,53.8
2018-10-03T03:49:47.546Z,53.3
2018-10-03T03:50:48.951Z,53.8
2018-10-03T03:51:50.183Z,52.3
2018-10-03T03:52:51.598Z,50.3
2018-10-03T03:53:53.269Z,47.9
2018-10-03T03:54:54.950Z,43.5
2018-10-03T03:55:56.545Z,40.1
2018-10-03T03:56:58.128Z,38.6
2018-10-03T03:57:59.522Z,39.6
2018-10-03T03:59:01.088Z,41.1
2018-10-03T04:00:02.335Z,42
2018-10-03T04:01:03.775Z,44
2018-10-03T04:02:05.166Z,45.5
2018-10-03T04:03:06.718Z,45
2018-10-03T04:04:08.317Z,44.5
2018-10-03T04:05:09.890Z,43
2018-10-03T04:06:11.581Z,42
2018-10-03T04:07:13.409Z,40.1
2018-10-03T04:08:15.010Z,39.6
2018-10-03T04:09:16.593Z,41.1
2018-10-03T04:10:18.156Z,42.5
2018-10-03T04:11:19.767Z,43.5
2018-10-03T04:12:21.342Z,45.5
2018-10-03T04:13:22.915Z,46.4
2018-10-03T04:14:24.495Z,46.4
2018-10-03T04:15:25.905Z,45
2018-10-03T04:16:27.295Z,45
2018-10-03T04:17:28.871Z,42.5
2018-10-03T04:18:30.440Z,42
2018-10-03T04:19:31.686Z,40.6
2018-10-03T04:20:33.256Z,40.6
2018-10-03T04:21:34.680Z,42.5
2018-10-03T04:22:36.271Z,44.5
2018-10-03T04:23:37.854Z,45.5
2018-10-03T04:24:39.268Z,46.4
2018-10-03T04:25:40.681Z,46.4
2018-10-03T04:26:42.358Z,46.4
2018-10-03T04:27:44.084Z,45.5
2018-10-03T04:28:45.721Z,45.9
2018-10-03T04:29:46.955Z,44.5
2018-10-03T04:30:48.178Z,42.5
2018-10-03T04:31:49.742Z,42
2018-10-03T04:32:51.127Z,41.1
2018-10-03T04:33:52.690Z,41.1
2018-10-03T04:34:54.246Z,42
2018-10-03T04:35:55.635Z,45
2018-10-03T04:36:57.199Z,46.4
2018-10-03T04:37:58.784Z,47.4
2018-10-03T04:39:00.026Z,46.9
2018-10-03T04:40:01.590Z,47.9
2018-10-03T04:41:03.164Z,47.4
2018-10-03T04:42:04.936Z,45.5
2018-10-03T04:43:06.442Z,45
2018-10-03T04:44:07.850Z,43.5
2018-10-03T04:45:09.411Z,43
2018-10-03T04:46:10.817Z,40.6
2018-10-03T04:47:12.376Z,41.1
2018-10-03T04:48:13.782Z,42
2018-10-03T04:49:15.182Z,43.5
2018-10-03T04:50:16.576Z,45.9
2018-10-03T04:51:17.986Z,47.4
2018-10-03T04:52:19.674Z,47.9
2018-10-03T04:53:21.097Z,47.4
2018-10-03T04:54:22.674Z,47.4
2018-10-03T04:55:24.077Z,46.4
2018-10-03T04:56:25.497Z,45.9
2018-10-03T04:57:27.077Z,45
2018-10-03T04:58:28.620Z,44.5
2018-10-03T04:59:30.027Z,42.5
2018-10-03T05:00:31.575Z,42
2018-10-03T05:01:33.238Z,42
2018-10-03T05:02:34.960Z,41.1
2018-10-03T05:03:36.345Z,40.1
2018-10-03T05:04:37.751Z,40.6
2018-10-03T05:05:39.314Z,40.1
2018-10-03T05:06:40.714Z,40.1
2018-10-03T05:07:42.277Z,40.1
2018-10-03T05:08:43.656Z,40.6
2018-10-03T05:09:45.228Z,39.1
2018-10-03T05:10:46.785Z,40.1
2018-10-03T05:11:48.200Z,39.1
2018-10-03T05:12:49.431Z,40.1
2018-10-03T05:13:50.822Z,40.1
2018-10-03T05:14:52.372Z,40.1
2018-10-03T05:15:53.940Z,40.1
2018-10-03T05:16:55.506Z,46.4
2018-10-03T05:17:57.076Z,51.3
2018-10-03T05:18:58.621Z,54.7
2018-10-03T05:20:00.231Z,56.7
2018-10-03T05:21:01.979Z,58.2
2018-10-03T05:22:03.629Z,58.2
2018-10-03T05:23:05.238Z,58.2
2018-10-03T05:24:06.780Z,58.2
2018-10-03T05:25:08.345Z,58.7
2018-10-03T05:26:09.608Z,58.7
2018-10-03T05:27:11.164Z,57.7
2018-10-03T05:28:12.710Z,57.7
2018-10-03T05:29:14.282Z,57.7
2018-10-03T05:30:15.660Z,57.2
2018-10-03T05:31:17.252Z,57.2
2018-10-03T05:32:18.952Z,56.2
2018-10-03T05:33:20.761Z,56.2
2018-10-03T05:34:22.235Z,55.7
2018-10-03T05:35:23.466Z,55.7
2018-10-03T05:36:25.042Z,54.7
2018-10-03T05:37:26.283Z,55.2
2018-10-03T05:38:27.855Z,54.3
2018-10-03T05:39:29.633Z,54.3
2018-10-03T05:40:31.246Z,53.3
2018-10-03T05:41:32.819Z,53.3
2018-10-03T05:42:34.488Z,53.3
2018-10-03T05:43:35.892Z,52.8
2018-10-03T05:44:37.303Z,53.3
2018-10-03T05:45:38.694Z,51.8
2018-10-03T05:46:40.264Z,51.3
2018-10-03T05:47:41.632Z,48.9
2018-10-03T05:48:43.645Z,47.9
2018-10-03T05:49:45.351Z,45
2018-10-03T05:50:47.004Z,42
2018-10-03T05:51:48.588Z,41.1
2018-10-03T05:52:50.161Z,41.5
2018-10-03T05:53:51.728Z,42.5
2018-10-03T05:54:53.547Z,44.5
2018-10-03T05:55:54.608Z,45.5
2018-10-03T05:56:56.196Z,46.9
2018-10-03T05:57:57.595Z,46.9
2018-10-03T05:58:58.841Z,46.9
2018-10-03T06:00:00.395Z,46.4
2018-10-03T06:01:01.582Z,45.5
2018-10-03T06:02:03.223Z,45.5
2018-10-03T06:03:04.894Z,45
2018-10-03T06:04:06.493Z,45
2018-10-03T06:05:08.076Z,43.5
2018-10-03T06:06:09.677Z,43.5
2018-10-03T06:07:11.097Z,43
2018-10-03T06:08:12.670Z,42
2018-10-03T06:09:14.229Z,42.5
2018-10-03T06:10:15.464Z,43
2018-10-03T06:11:17.063Z,43
2018-10-03T06:12:19.198Z,44.5
2018-10-03T06:13:20.598Z,45.5
2018-10-03T06:14:22.184Z,45.9
2018-10-03T06:15:23.777Z,46.4
2018-10-03T06:16:25.196Z,46.4
2018-10-03T06:17:26.590Z,46.9
2018-10-03T06:18:28.368Z,46.9
2018-10-03T06:19:29.835Z,46.9
2018-10-03T06:20:31.258Z,46.4
2018-10-03T06:21:32.696Z,46.4
2018-10-03T06:22:34.100Z,45.9
2018-10-03T06:23:35.338Z,45.9
2018-10-03T06:24:36.404Z,45
2018-10-03T06:25:37.692Z,44.5
2018-10-03T06:26:38.775Z,43.5
2018-10-03T06:27:40.160Z,43.5
2018-10-03T06:28:41.658Z,42
2018-10-03T06:29:42.929Z,43
2018-10-03T06:30:44.327Z,42.5
2018-10-03T06:31:45.372Z,42
2018-10-03T06:32:46.431Z,43
2018-10-03T06:33:47.950Z,43.5
2018-10-03T06:34:49.385Z,44.5
2018-10-03T06:35:50.959Z,45.5
2018-10-03T06:36:52.199Z,45.9
2018-10-03T06:37:53.758Z,45.9
2018-10-03T06:38:55.189Z,45.9
2018-10-03T06:39:56.768Z,46.9
2018-10-03T06:40:58.170Z,46.4
2018-10-03T06:41:59.587Z,47.4
2018-10-03T06:43:00.980Z,46.4
2018-10-03T06:44:02.575Z,46.9
2018-10-03T06:45:03.824Z,45.9
2018-10-03T06:46:05.247Z,45.5
2018-10-03T06:47:06.812Z,46.4
2018-10-03T06:48:08.380Z,45.5
2018-10-03T06:49:09.947Z,45.5
2018-10-03T06:50:11.542Z,45.5
2018-10-03T06:51:13.091Z,44.5
2018-10-03T06:52:14.656Z,44
2018-10-03T06:53:16.219Z,44
2018-10-03T06:54:17.785Z,43.5
2018-10-03T06:55:19.197Z,43
2018-10-03T06:56:20.763Z,43
2018-10-03T06:57:22.182Z,43
2018-10-03T06:58:23.676Z,41.5
2018-10-03T06:59:25.344Z,42.5
2018-10-03T07:00:26.966Z,42.5
2018-10-03T07:01:28.365Z,43
2018-10-03T07:02:29.777Z,42
2018-10-03T07:03:31.146Z,42
2018-10-03T07:04:32.418Z,42
2018-10-03T07:05:34.004Z,41.1
2018-10-03T07:06:35.567Z,41.5
2018-10-03T07:07:37.137Z,41.1
2018-10-03T07:08:38.520Z,48.9
2018-10-03T07:09:39.954Z,54.3
2018-10-03T07:10:41.514Z,57.2
2018-10-03T07:11:43.066Z,58.7
2018-10-03T07:12:44.310Z,58.7
2018-10-03T07:13:45.864Z,57.7
2018-10-03T07:14:47.430Z,58.7
2018-10-03T07:15:49.019Z,57.7
2018-10-03T07:16:50.404Z,56.2
2018-10-03T07:17:51.960Z,56.7
2018-10-03T07:18:53.357Z,55.2
2018-10-03T07:19:54.927Z,55.7
2018-10-03T07:20:56.490Z,54.7
2018-10-03T07:21:58.061Z,54.3
2018-10-03T07:22:59.632Z,53.8
2018-10-03T07:24:01.204Z,53.8
2018-10-03T07:25:02.622Z,53.3
2018-10-03T07:26:04.446Z,52.8
2018-10-03T07:27:05.901Z,52.8
2018-10-03T07:28:07.279Z,51.3
2018-10-03T07:29:08.755Z,49.9
2018-10-03T07:30:10.341Z,45.5
2018-10-03T07:31:11.903Z,43
2018-10-03T07:32:13.307Z,41.5
2018-10-03T07:33:14.702Z,42
2018-10-03T07:34:16.293Z,44
2018-10-03T07:35:17.703Z,45.9
2018-10-03T07:36:19.272Z,45.9
2018-10-03T07:37:20.686Z,47.4
2018-10-03T07:38:22.257Z,47.9
2018-10-03T07:39:23.808Z,47.9
2018-10-03T07:40:25.376Z,47.4
2018-10-03T07:41:26.797Z,47.9
2018-10-03T07:42:28.369Z,46.9
2018-10-03T07:43:29.958Z,47.9
2018-10-03T07:44:31.393Z,48.4
2018-10-03T07:45:33.086Z,47.4
2018-10-03T07:46:34.757Z,46.9
2018-10-03T07:47:36.198Z,47.4
2018-10-03T07:48:37.765Z,47.9
2018-10-03T07:49:39.335Z,47.4
2018-10-03T07:50:40.900Z,47.4
2018-10-03T07:51:42.150Z,46.4
2018-10-03T07:52:43.718Z,46.4
2018-10-03T07:53:45.619Z,45.9
2018-10-03T07:54:46.857Z,45.9
2018-10-03T07:55:48.452Z,45.9
2018-10-03T07:56:50.009Z,45.9
2018-10-03T07:57:52.274Z,44.5
2018-10-03T07:58:54.366Z,45.5
2018-10-03T07:59:56.105Z,45
2018-10-03T08:00:57.709Z,44.5
2018-10-03T08:01:59.293Z,45.5
2018-10-03T08:03:00.885Z,45
2018-10-03T08:04:02.317Z,44.5
2018-10-03T08:05:03.590Z,45.5
2018-10-03T08:06:05.243Z,46.4
2018-10-03T08:07:06.676Z,45.5
2018-10-03T08:08:08.257Z,46.9
2018-10-03T08:09:09.831Z,46.4
2018-10-03T08:10:11.408Z,46.4
2018-10-03T08:11:12.996Z,46.4
2018-10-03T08:12:14.396Z,46.9
2018-10-03T08:13:15.969Z,46.4
2018-10-03T08:14:17.594Z,46.4
2018-10-03T08:15:19.207Z,46.4
2018-10-03T08:16:20.597Z,46.4
2018-10-03T08:17:22.448Z,45.5
2018-10-03T08:18:23.770Z,45
2018-10-03T08:19:25.344Z,46.4
2018-10-03T08:20:26.995Z,45.9
2018-10-03T08:21:28.504Z,45
2018-10-03T08:22:30.091Z,45
2018-10-03T08:23:31.693Z,45
2018-10-03T08:24:33.764Z,44
2018-10-03T08:25:35.345Z,45
2018-10-03T08:26:36.931Z,45
2018-10-03T08:27:38.327Z,45.5
2018-10-03T08:28:39.780Z,45.9
2018-10-03T08:29:41.212Z,45
2018-10-03T08:30:42.597Z,45.5
2018-10-03T08:31:44.163Z,45.9
2018-10-03T08:32:47.425Z,45.5
2018-10-03T08:33:49.614Z,44.5
2018-10-03T08:34:51.216Z,42.5
2018-10-03T08:35:52.799Z,41.1
2018-10-03T08:36:54.370Z,41.1
2018-10-03T08:37:55.782Z,41.1
2018-10-03T08:38:57.201Z,42.5
2018-10-03T08:39:58.768Z,42.5
2018-10-03T08:41:00.197Z,42
2018-10-03T08:42:01.611Z,42.5
2018-10-03T08:43:03.230Z,42
2018-10-03T08:44:04.648Z,42
2018-10-03T08:45:05.721Z,42
2018-10-03T08:46:07.440Z,41.5
2018-10-03T08:47:09.069Z,41.1
2018-10-03T08:48:10.484Z,41.1
2018-10-03T08:49:12.052Z,40.6
2018-10-03T08:50:13.625Z,40.6
2018-10-03T08:51:15.042Z,40.6
2018-10-03T08:52:16.433Z,40.6
2018-10-03T08:53:18.008Z,39.6
2018-10-03T08:54:19.429Z,40.1
2018-10-03T08:55:21.020Z,40.1
2018-10-03T08:56:22.591Z,40.1
2018-10-03T08:57:24.169Z,39.6
2018-10-03T08:58:26.717Z,40.1
2018-10-03T08:59:28.486Z,46.9
2018-10-03T09:00:30.065Z,52.8
2018-10-03T09:01:31.649Z,56.7
2018-10-03T09:02:33.216Z,58.7
2018-10-03T09:03:34.607Z,60.1
2018-10-03T09:04:36.188Z,60.1
2018-10-03T09:05:37.786Z,60.1
2018-10-03T09:06:39.352Z,59.1
2018-10-03T09:07:40.914Z,58.7
2018-10-03T09:08:42.317Z,57.7
2018-10-03T09:09:43.722Z,56.2
2018-10-03T09:10:45.297Z,56.2
2018-10-03T09:11:47.485Z,55.2
2018-10-03T09:12:49.138Z,54.7
2018-10-03T09:13:50.555Z,53.8
2018-10-03T09:14:52.138Z,54.3
2018-10-03T09:15:53.557Z,53.3
2018-10-03T09:16:54.986Z,53.8
2018-10-03T09:17:56.436Z,52.8
2018-10-03T09:18:58.063Z,52.8
2018-10-03T09:19:59.629Z,52.8
2018-10-03T09:21:01.249Z,51.8
2018-10-03T09:22:02.856Z,52.3
2018-10-03T09:23:04.446Z,52.3
2018-10-03T09:24:06.096Z,52.8
2018-10-03T09:25:07.668Z,51.8
2018-10-03T09:26:09.295Z,52.3
2018-10-03T09:27:10.870Z,52.3
2018-10-03T09:28:12.717Z,52.3
2018-10-03T09:29:13.989Z,50.8
2018-10-03T09:30:15.590Z,51.3
2018-10-03T09:31:17.178Z,51.3
2018-10-03T09:32:18.573Z,49.9
2018-10-03T09:33:20.170Z,49.9
2018-10-03T09:34:21.580Z,48.9
2018-10-03T09:35:23.201Z,48.9
2018-10-03T09:36:24.613Z,47.9
2018-10-03T09:37:26.004Z,45.5
2018-10-03T09:38:27.573Z,44.5
2018-10-03T09:39:29.520Z,43.5
2018-10-03T09:40:31.107Z,42.5
2018-10-03T09:41:32.499Z,42.5
2018-10-03T09:42:34.685Z,42.5
2018-10-03T09:43:36.296Z,43.5
2018-10-03T09:44:38.724Z,45
2018-10-03T09:45:40.562Z,45
2018-10-03T09:46:42.183Z,45.9
2018-10-03T09:47:43.799Z,45.9
2018-10-03T09:48:45.204Z,46.9
2018-10-03T09:49:46.779Z,46.9
2018-10-03T09:50:48.205Z,45.9
2018-10-03T09:51:49.796Z,45.9
2018-10-03T09:52:51.204Z,45.9
2018-10-03T09:53:52.759Z,44.5
2018-10-03T09:54:54.366Z,45
2018-10-03T09:55:55.976Z,44
2018-10-03T09:56:57.547Z,43
2018-10-03T09:57:59.101Z,43.5
2018-10-03T09:59:00.696Z,43
2018-10-03T10:00:02.118Z,41.1
2018-10-03T10:01:03.705Z,41.1
2018-10-03T10:02:05.128Z,41.5
2018-10-03T10:03:06.708Z,41.1
2018-10-03T10:04:08.338Z,42
2018-10-03T10:05:09.956Z,43.5
2018-10-03T10:06:11.540Z,44
2018-10-03T10:07:13.114Z,44.5
2018-10-03T10:08:14.722Z,45
2018-10-03T10:09:16.337Z,45.9
2018-10-03T10:10:18.474Z,45.9
2018-10-03T10:11:20.616Z,45.5
2018-10-03T10:12:22.526Z,45.9
2018-10-03T10:13:23.936Z,45.5
2018-10-03T10:14:25.575Z,44.5
2018-10-03T10:15:27.183Z,45
2018-10-03T10:16:28.788Z,45.5
2018-10-03T10:17:30.028Z,44.5
2018-10-03T10:18:31.605Z,44.5
2018-10-03T10:19:33.178Z,44
2018-10-03T10:20:34.955Z,44
2018-10-03T10:21:36.664Z,43
2018-10-03T10:22:38.239Z,43.5
2018-10-03T10:23:39.516Z,43.5
2018-10-03T10:24:41.104Z,43
2018-10-03T10:25:42.686Z,43
2018-10-03T10:26:44.257Z,42.5
2018-10-03T10:27:45.897Z,42.5
2018-10-03T10:28:47.519Z,42
2018-10-03T10:29:48.967Z,42
2018-10-03T10:30:50.238Z,42.5
2018-10-03T10:31:52.201Z,41.5
2018-10-03T10:32:54.735Z,42
2018-10-03T10:33:56.575Z,41.5
2018-10-03T10:34:58.141Z,41.5
2018-10-03T10:35:59.734Z,41.1
2018-10-03T10:37:01.179Z,41.5
2018-10-03T10:38:02.746Z,41.5
2018-10-03T10:39:04.337Z,42.5
2018-10-03T10:40:06.382Z,43.5
2018-10-03T10:41:08.895Z,46.4
2018-10-03T10:42:10.615Z,48.9
2018-10-03T10:43:12.332Z,51.3
2018-10-03T10:44:13.666Z,52.3
2018-10-03T10:45:15.082Z,53.8
2018-10-03T10:46:16.666Z,55.2
2018-10-03T10:47:18.085Z,56.2
2018-10-03T10:48:19.655Z,56.7
2018-10-03T10:49:21.255Z,57.2
2018-10-03T10:50:23.365Z,58.2
2018-10-03T10:51:25.164Z,57.7
2018-10-03T10:52:26.574Z,58.7
2018-10-03T10:53:28.142Z,57.7
2018-10-03T10:54:29.763Z,58.2
2018-10-03T10:55:31.027Z,57.7
2018-10-03T10:56:32.466Z,57.2
2018-10-03T10:57:34.026Z,57.7
2018-10-03T10:58:35.265Z,58.2
2018-10-03T10:59:37.109Z,57.2
2018-10-03T11:00:38.797Z,57.7
2018-10-03T11:01:40.232Z,57.2
2018-10-03T11:02:41.786Z,56.7
2018-10-03T11:03:43.358Z,56.2
2018-10-03T11:04:44.781Z,56.7
2018-10-03T11:05:46.365Z,56.7
2018-10-03T11:06:48.603Z,55.2
2018-10-03T11:07:50.368Z,55.2
2018-10-03T11:08:51.968Z,56.2
2018-10-03T11:09:53.565Z,54.7
2018-10-03T11:10:54.813Z,55.7
2018-10-03T11:11:56.420Z,54.7
2018-10-03T11:12:58.008Z,54.3
2018-10-03T11:13:59.588Z,53.3
2018-10-03T11:15:00.981Z,54.3
2018-10-03T11:16:02.378Z,54.7
2018-10-03T11:17:04.540Z,53.3
2018-10-03T11:18:06.332Z,53.8
2018-10-03T11:19:07.935Z,52.8
2018-10-03T11:20:09.337Z,53.8
2018-10-03T11:21:10.908Z,52.3
2018-10-03T11:22:12.497Z,53.3
2018-10-03T11:23:14.066Z,53.8
2018-10-03T11:24:16.695Z,52.3
2018-10-03T11:25:18.398Z,52.8
2018-10-03T11:26:19.803Z,51.8
2018-10-03T11:27:21.397Z,52.8
2018-10-03T11:28:22.966Z,51.8
2018-10-03T11:29:24.251Z,51.3
2018-10-03T11:30:25.803Z,51.8
2018-10-03T11:31:27.230Z,51.3
2018-10-03T11:32:28.865Z,51.3
2018-10-03T11:33:30.442Z,50.3
2018-10-03T11:34:32.017Z,48.9
2018-10-03T11:35:33.592Z,47.4
2018-10-03T11:36:35.170Z,45.5
2018-10-03T11:37:36.749Z,43
2018-10-03T11:38:38.340Z,40.6
2018-10-03T11:39:39.929Z,38.6
2018-10-03T11:40:41.323Z,39.1
2018-10-03T11:41:42.743Z,39.6
2018-10-03T11:42:44.142Z,43
2018-10-03T11:43:45.669Z,45
2018-10-03T11:44:46.798Z,46.4
2018-10-03T11:45:48.518Z,46.9
2018-10-03T11:46:50.165Z,46.9
2018-10-03T11:47:51.785Z,47.4
2018-10-03T11:48:53.370Z,46.9
2018-10-03T11:49:54.956Z,45.9
2018-10-03T11:50:56.367Z,45.9
2018-10-03T11:51:57.949Z,44.5
2018-10-03T11:52:59.358Z,43.5
2018-10-03T11:54:00.996Z,42.5
2018-10-03T11:55:02.604Z,40.6
2018-10-03T11:56:04.022Z,39.1
2018-10-03T11:57:05.950Z,39.6
2018-10-03T11:58:07.635Z,40.1
2018-10-03T11:59:09.209Z,41.5
2018-10-03T12:00:10.650Z,42.5
2018-10-03T12:01:12.225Z,43.5
2018-10-03T12:02:13.828Z,43
2018-10-03T12:03:16.084Z,43.5
2018-10-03T12:04:17.977Z,43
2018-10-03T12:05:19.535Z,43.5
2018-10-03T12:06:21.090Z,43.5
2018-10-03T12:07:22.727Z,42.5
2018-10-03T12:08:24.306Z,42
2018-10-03T12:09:26.370Z,42.5
2018-10-03T12:10:28.006Z,41.5
2018-10-03T12:11:29.436Z,41.5
2018-10-03T12:12:31.005Z,42
2018-10-03T12:13:32.841Z,41.5
2018-10-03T12:14:34.456Z,40.6
2018-10-03T12:15:36.148Z,41.1
2018-10-03T12:16:37.606Z,41.5
2018-10-03T12:17:39.223Z,41.1
2018-10-03T12:18:40.816Z,41.5
2018-10-03T12:19:42.303Z,40.1
2018-10-03T12:20:43.933Z,42
2018-10-03T12:21:45.537Z,45.9
2018-10-03T12:22:46.946Z,49.9
2018-10-03T12:23:48.512Z,53.8
2018-10-03T12:24:50.115Z,57.2
2018-10-03T12:25:51.680Z,58.2
2018-10-03T12:26:53.088Z,59.1
2018-10-03T12:27:54.664Z,60.6
2018-10-03T12:28:56.064Z,60.6
2018-10-03T12:29:57.646Z,60.1
2018-10-03T12:30:59.233Z,61.1
2018-10-03T12:32:00.824Z,61.6
2018-10-03T12:33:02.253Z,61.1
2018-10-03T12:34:03.652Z,62.1
2018-10-03T12:35:05.060Z,61.6
2018-10-03T12:36:06.319Z,61.1
2018-10-03T12:37:07.742Z,61.6
2018-10-03T12:38:09.358Z,60.6
2018-10-03T12:39:11.132Z,60.6
2018-10-03T12:40:12.762Z,60.1
2018-10-03T12:41:14.175Z,61.1
2018-10-03T12:42:15.613Z,60.1
2018-10-03T12:43:17.186Z,60.1
2018-10-03T12:44:18.828Z,60.1
2018-10-03T12:45:20.411Z,59.6
2018-10-03T12:46:22.010Z,59.1
2018-10-03T12:47:23.613Z,58.7
2018-10-03T12:48:25.186Z,58.2
2018-10-03T12:49:26.649Z,57.2
2018-10-03T12:50:28.208Z,56.2
2018-10-03T12:51:29.801Z,55.7
2018-10-03T12:52:31.395Z,55.2
2018-10-03T12:53:32.996Z,54.7
2018-10-03T12:54:34.748Z,53.3
2018-10-03T12:55:36.475Z,53.3
2018-10-03T12:56:38.044Z,52.3
2018-10-03T12:57:39.656Z,52.8
2018-10-03T12:58:41.272Z,52.3
2018-10-03T12:59:42.828Z,51.8
2018-10-03T13:00:44.402Z,50.3
2018-10-03T13:01:45.982Z,48.9
2018-10-03T13:02:47.566Z,48.4
2018-10-03T13:03:49.128Z,47.9
2018-10-03T13:04:50.739Z,46.9
2018-10-03T13:05:52.335Z,47.9
2018-10-03T13:06:53.749Z,46.4
2018-10-03T13:07:55.326Z,47.4
2018-10-03T13:08:56.945Z,46.9
2018-10-03T13:09:58.405Z,46.4
2018-10-03T13:10:59.808Z,45.9
2018-10-03T13:12:01.378Z,45.9
2018-10-03T13:13:02.945Z,45.9
2018-10-03T13:14:04.899Z,45.5
2018-10-03T13:15:06.638Z,45.5
2018-10-03T13:16:08.256Z,45
2018-10-03T13:17:09.837Z,45
2018-10-03T13:18:11.407Z,45
2018-10-03T13:19:12.987Z,44.5
2018-10-03T13:20:14.415Z,44.5
2018-10-03T13:21:15.824Z,45
2018-10-03T13:22:17.205Z,44.5
2018-10-03T13:23:18.799Z,44
2018-10-03T13:24:20.556Z,44
2018-10-03T13:25:22.447Z,44
2018-10-03T13:26:24.081Z,43.5
2018-10-03T13:27:25.702Z,43
2018-10-03T13:28:27.325Z,42.5
2018-10-03T13:29:28.923Z,43
2018-10-03T13:30:30.546Z,43
2018-10-03T13:31:32.477Z,42.5
2018-10-03T13:32:34.050Z,43
2018-10-03T13:33:35.632Z,43
2018-10-03T13:34:37.237Z,42.5
2018-10-03T13:35:38.796Z,42
2018-10-03T13:36:40.215Z,42.5
2018-10-03T13:37:41.777Z,41.5
2018-10-03T13:38:43.355Z,41.1
2018-10-03T13:39:44.955Z,41.5
2018-10-03T13:40:46.789Z,41.5
2018-10-03T13:41:48.465Z,41.1
2018-10-03T13:42:49.880Z,41.1
2018-10-03T13:43:51.295Z,41.1
2018-10-03T13:44:52.523Z,41.1
2018-10-03T13:45:53.931Z,41.1